sensor_id;sensor_type;location;lat;lon;timestamp;P1;durP1;ratioP1;P2;durP2;ratioP2
36253;SDS011;22291;52.250;21.228;2023-02-17T00:03:23;92.53;;;39.98;;
36253;SDS011;22291;52.250;21.228;2023-02-17T00:05:50;93.82;;;43.15;;
36253;SDS011;22291;52.250;21.228;2023-02-17T00:08:18;101.22;;;45.20;;
36253;SDS011;22291;52.250;21.228;2023-02-17T00:10:55;89.95;;;39.30;;
36253;SDS011;22291;52.250;21.228;2023-02-17T00:13:16;93.65;;;41.85;;
36253;SDS011;22291;52.250;21.228;2023-02-17T00:15:43;85.70;;;37.93;;
36253;SDS011;22291;52.250;21.228;2023-02-17T00:18:10;99.95;;;67.70;;
36253;SDS011;22291;52.250;21.228;2023-02-17T00:20:37;136.60;;;107.63;;
36253;SDS011;22291;52.250;21.228;2023-02-17T00:23:04;119.10;;;99.28;;
36253;SDS011;22291;52.250;21.228;2023-02-17T00:25:30;124.45;;;101.35;;
36253;SDS011;22291;52.250;21.228;2023-02-17T00:27:57;129.68;;;103.95;;
36253;SDS011;22291;52.250;21.228;2023-02-17T00:30:25;136.15;;;104.58;;
36253;SDS011;22291;52.250;21.228;2023-02-17T00:32:52;131.43;;;103.32;;
36253;SDS011;22291;52.250;21.228;2023-02-17T00:35:19;129.12;;;103.27;;
36253;SDS011;22291;52.250;21.228;2023-02-17T00:37:46;132.97;;;102.00;;
36253;SDS011;22291;52.250;21.228;2023-02-17T00:40:13;128.32;;;104.87;;
36253;SDS011;22291;52.250;21.228;2023-02-17T00:42:40;135.63;;;105.72;;
36253;SDS011;22291;52.250;21.228;2023-02-17T00:45:08;133.63;;;101.27;;
36253;SDS011;22291;52.250;21.228;2023-02-17T00:47:35;139.23;;;99.50;;
36253;SDS011;22291;52.250;21.228;2023-02-17T00:50:03;125.33;;;98.93;;
36253;SDS011;22291;52.250;21.228;2023-02-17T00:52:32;101.58;;;51.10;;
36253;SDS011;22291;52.250;21.228;2023-02-17T00:54:59;115.20;;;77.53;;
36253;SDS011;22291;52.250;21.228;2023-02-17T00:57:26;130.95;;;107.65;;
36253;SDS011;22291;52.250;21.228;2023-02-17T00:59:55;93.37;;;74.35;;
36253;SDS011;22291;52.250;21.228;2023-02-17T01:02:22;131.35;;;108.52;;
36253;SDS011;22291;52.250;21.228;2023-02-17T01:04:50;133.30;;;104.78;;
36253;SDS011;22291;52.250;21.228;2023-02-17T01:07:17;128.75;;;105.30;;
36253;SDS011;22291;52.250;21.228;2023-02-17T01:09:44;124.87;;;104.55;;
36253;SDS011;22291;52.250;21.228;2023-02-17T01:12:11;124.92;;;106.45;;
36253;SDS011;22291;52.250;21.228;2023-02-17T01:14:38;116.93;;;100.90;;
36253;SDS011;22291;52.250;21.228;2023-02-17T01:17:06;135.07;;;100.13;;
36253;SDS011;22291;52.250;21.228;2023-02-17T01:19:33;128.75;;;102.02;;
36253;SDS011;22291;52.250;21.228;2023-02-17T01:22:00;100.35;;;63.60;;
36253;SDS011;22291;52.250;21.228;2023-02-17T01:24:27;134.50;;;106.40;;
36253;SDS011;22291;52.250;21.228;2023-02-17T01:26:55;127.62;;;106.63;;
36253;SDS011;22291;52.250;21.228;2023-02-17T01:29:22;124.42;;;105.12;;
36253;SDS011;22291;52.250;21.228;2023-02-17T01:31:49;129.32;;;106.45;;
36253;SDS011;22291;52.250;21.228;2023-02-17T01:34:16;138.15;;;104.23;;
36253;SDS011;22291;52.250;21.228;2023-02-17T01:36:43;126.20;;;104.45;;
36253;SDS011;22291;52.250;21.228;2023-02-17T01:39:12;133.07;;;98.47;;
36253;SDS011;22291;52.250;21.228;2023-02-17T01:41:40;128.45;;;105.67;;
36253;SDS011;22291;52.250;21.228;2023-02-17T01:44:09;142.63;;;104.47;;
36253;SDS011;22291;52.250;21.228;2023-02-17T01:46:39;128.37;;;104.27;;
36253;SDS011;22291;52.250;21.228;2023-02-17T01:51:46;126.58;;;104.65;;
36253;SDS011;22291;52.250;21.228;2023-02-17T01:54:21;82.45;;;37.08;;
36253;SDS011;22291;52.250;21.228;2023-02-17T01:56:47;132.37;;;105.78;;
36253;SDS011;22291;52.250;21.228;2023-02-17T01:59:20;126.40;;;104.47;;
36253;SDS011;22291;52.250;21.228;2023-02-17T02:01:46;126.85;;;100.07;;
36253;SDS011;22291;52.250;21.228;2023-02-17T02:04:16;97.40;;;54.45;;
36253;SDS011;22291;52.250;21.228;2023-02-17T02:06:46;96.17;;;52.78;;
36253;SDS011;22291;52.250;21.228;2023-02-17T02:09:18;128.93;;;106.90;;
36253;SDS011;22291;52.250;21.228;2023-02-17T02:11:53;130.67;;;106.95;;
36253;SDS011;22291;52.250;21.228;2023-02-17T02:14:20;134.85;;;104.12;;
36253;SDS011;22291;52.250;21.228;2023-02-17T02:17:09;128.07;;;103.22;;
36253;SDS011;22291;52.250;21.228;2023-02-17T02:31:06;140.57;;;100.73;;
36253;SDS011;22291;52.250;21.228;2023-02-17T02:36:17;132.90;;;105.05;;
36253;SDS011;22291;52.250;21.228;2023-02-17T02:38:58;133.57;;;105.22;;
36253;SDS011;22291;52.250;21.228;2023-02-17T02:41:33;127.25;;;97.88;;
36253;SDS011;22291;52.250;21.228;2023-02-17T02:43:58;128.20;;;105.27;;
36253;SDS011;22291;52.250;21.228;2023-02-17T02:46:25;123.82;;;104.97;;
36253;SDS011;22291;52.250;21.228;2023-02-17T02:48:52;133.55;;;104.95;;
36253;SDS011;22291;52.250;21.228;2023-02-17T02:51:28;119.28;;;101.50;;
36253;SDS011;22291;52.250;21.228;2023-02-17T02:57:02;131.00;;;103.78;;
36253;SDS011;22291;52.250;21.228;2023-02-17T02:59:46;130.72;;;104.90;;
36253;SDS011;22291;52.250;21.228;2023-02-17T03:02:32;138.30;;;104.80;;
36253;SDS011;22291;52.250;21.228;2023-02-17T03:08:01;130.52;;;102.22;;
36253;SDS011;22291;52.250;21.228;2023-02-17T03:10:30;132.03;;;102.62;;
36253;SDS011;22291;52.250;21.228;2023-02-17T03:13:00;126.60;;;103.42;;
36253;SDS011;22291;52.250;21.228;2023-02-17T03:15:30;126.78;;;103.22;;
36253;SDS011;22291;52.250;21.228;2023-02-17T03:18:00;127.77;;;101.60;;
36253;SDS011;22291;52.250;21.228;2023-02-17T03:20:38;83.25;;;67.08;;
36253;SDS011;22291;52.250;21.228;2023-02-17T03:23:02;127.53;;;101.27;;
36253;SDS011;22291;52.250;21.228;2023-02-17T03:25:31;122.45;;;98.07;;
36253;SDS011;22291;52.250;21.228;2023-02-17T03:27:58;136.47;;;104.40;;
36253;SDS011;22291;52.250;21.228;2023-02-17T03:30:25;134.95;;;102.45;;
36253;SDS011;22291;52.250;21.228;2023-02-17T03:32:52;128.15;;;102.42;;
36253;SDS011;22291;52.250;21.228;2023-02-17T03:35:20;136.97;;;103.70;;
36253;SDS011;22291;52.250;21.228;2023-02-17T03:37:47;128.62;;;100.15;;
36253;SDS011;22291;52.250;21.228;2023-02-17T03:40:14;133.50;;;104.80;;
36253;SDS011;22291;52.250;21.228;2023-02-17T03:42:43;133.82;;;101.47;;
36253;SDS011;22291;52.250;21.228;2023-02-17T03:45:10;124.60;;;99.80;;
36253;SDS011;22291;52.250;21.228;2023-02-17T03:47:36;128.85;;;99.70;;
36253;SDS011;22291;52.250;21.228;2023-02-17T03:50:05;127.78;;;102.53;;
36253;SDS011;22291;52.250;21.228;2023-02-17T03:52:34;130.35;;;102.07;;
36253;SDS011;22291;52.250;21.228;2023-02-17T03:55:04;89.57;;;70.00;;
36253;SDS011;22291;52.250;21.228;2023-02-17T03:57:32;127.00;;;101.67;;
36253;SDS011;22291;52.250;21.228;2023-02-17T04:00:01;103.00;;;78.60;;
36253;SDS011;22291;52.250;21.228;2023-02-17T04:02:31;131.07;;;100.33;;
36253;SDS011;22291;52.250;21.228;2023-02-17T04:04:58;125.67;;;101.70;;
36253;SDS011;22291;52.250;21.228;2023-02-17T04:07:25;144.90;;;107.27;;
36253;SDS011;22291;52.250;21.228;2023-02-17T04:09:53;131.87;;;104.60;;
36253;SDS011;22291;52.250;21.228;2023-02-17T04:12:21;134.40;;;101.47;;
36253;SDS011;22291;52.250;21.228;2023-02-17T04:14:48;133.87;;;98.77;;
36253;SDS011;22291;52.250;21.228;2023-02-17T04:17:15;132.07;;;103.00;;
36253;SDS011;22291;52.250;21.228;2023-02-17T04:19:43;156.43;;;106.70;;
36253;SDS011;22291;52.250;21.228;2023-02-17T04:22:10;167.27;;;102.17;;
36253;SDS011;22291;52.250;21.228;2023-02-17T04:24:37;131.27;;;102.07;;
36253;SDS011;22291;52.250;21.228;2023-02-17T04:27:04;129.65;;;105.52;;
36253;SDS011;22291;52.250;21.228;2023-02-17T04:29:33;95.73;;;73.57;;
36253;SDS011;22291;52.250;21.228;2023-02-17T04:32:03;97.35;;;74.90;;
36253;SDS011;22291;52.250;21.228;2023-02-17T04:34:30;91.22;;;73.10;;
36253;SDS011;22291;52.250;21.228;2023-02-17T04:36:57;135.20;;;102.17;;
36253;SDS011;22291;52.250;21.228;2023-02-17T04:39:27;99.55;;;55.15;;
36253;SDS011;22291;52.250;21.228;2023-02-17T04:41:54;135.22;;;103.27;;
36253;SDS011;22291;52.250;21.228;2023-02-17T04:44:22;129.30;;;102.47;;
36253;SDS011;22291;52.250;21.228;2023-02-17T04:46:51;90.90;;;71.17;;
36253;SDS011;22291;52.250;21.228;2023-02-17T04:49:18;125.53;;;102.72;;
36253;SDS011;22291;52.250;21.228;2023-02-17T04:51:45;123.93;;;98.87;;
36253;SDS011;22291;52.250;21.228;2023-02-17T04:54:12;138.67;;;99.83;;
36253;SDS011;22291;52.250;21.228;2023-02-17T04:56:40;122.77;;;97.40;;
36253;SDS011;22291;52.250;21.228;2023-02-17T04:59:07;130.83;;;96.77;;
36253;SDS011;22291;52.250;21.228;2023-02-17T05:01:36;134.32;;;98.37;;
36253;SDS011;22291;52.250;21.228;2023-02-17T05:04:04;13.20;;;12.25;;
36253;SDS011;22291;52.250;21.228;2023-02-17T05:08:59;112.23;;;93.03;;
36253;SDS011;22291;52.250;21.228;2023-02-17T05:11:27;10.47;;;9.97;;
36253;SDS011;22291;52.250;21.228;2023-02-17T05:13:54;132.17;;;98.20;;
36253;SDS011;22291;52.250;21.228;2023-02-17T05:16:21;100.93;;;84.10;;
36253;SDS011;22291;52.250;21.228;2023-02-17T05:18:47;10.50;;;9.37;;
36253;SDS011;22291;52.250;21.228;2023-02-17T05:21:14;9.43;;;8.90;;
36253;SDS011;22291;52.250;21.228;2023-02-17T05:26:10;74.97;;;63.25;;
36253;SDS011;22291;52.250;21.228;2023-02-17T05:28:38;118.45;;;99.05;;
36253;SDS011;22291;52.250;21.228;2023-02-17T05:31:05;120.60;;;102.70;;
36253;SDS011;22291;52.250;21.228;2023-02-17T05:33:32;133.43;;;102.57;;
36253;SDS011;22291;52.250;21.228;2023-02-17T05:36:06;135.93;;;100.07;;
36253;SDS011;22291;52.250;21.228;2023-02-17T05:38:35;88.13;;;70.97;;
36253;SDS011;22291;52.250;21.228;2023-02-17T05:41:04;125.87;;;97.70;;
36253;SDS011;22291;52.250;21.228;2023-02-17T05:43:32;86.85;;;70.67;;
36253;SDS011;22291;52.250;21.228;2023-02-17T05:46:04;143.30;;;113.35;;
36253;SDS011;22291;52.250;21.228;2023-02-17T05:48:30;128.65;;;101.75;;
36253;SDS011;22291;52.250;21.228;2023-02-17T05:50:59;124.97;;;104.15;;
36253;SDS011;22291;52.250;21.228;2023-02-17T05:53:28;134.32;;;104.75;;
36253;SDS011;22291;52.250;21.228;2023-02-17T05:55:55;109.30;;;83.03;;
36253;SDS011;22291;52.250;21.228;2023-02-17T05:58:22;126.67;;;102.45;;
36253;SDS011;22291;52.250;21.228;2023-02-17T06:00:51;118.10;;;97.65;;
36253;SDS011;22291;52.250;21.228;2023-02-17T06:03:18;128.60;;;101.27;;
36253;SDS011;22291;52.250;21.228;2023-02-17T06:05:45;141.77;;;96.53;;
36253;SDS011;22291;52.250;21.228;2023-02-17T06:08:12;132.30;;;102.45;;
36253;SDS011;22291;52.250;21.228;2023-02-17T06:10:41;105.78;;;88.60;;
36253;SDS011;22291;52.250;21.228;2023-02-17T06:13:09;134.00;;;100.57;;
36253;SDS011;22291;52.250;21.228;2023-02-17T06:15:36;127.62;;;102.87;;
36253;SDS011;22291;52.250;21.228;2023-02-17T06:18:03;137.60;;;100.95;;
36253;SDS011;22291;52.250;21.228;2023-02-17T06:20:30;122.28;;;101.70;;
36253;SDS011;22291;52.250;21.228;2023-02-17T06:22:57;125.65;;;106.30;;
36253;SDS011;22291;52.250;21.228;2023-02-17T06:25:24;130.20;;;103.62;;
36253;SDS011;22291;52.250;21.228;2023-02-17T06:27:52;125.72;;;105.15;;
36253;SDS011;22291;52.250;21.228;2023-02-17T06:30:21;134.65;;;109.15;;
36253;SDS011;22291;52.250;21.228;2023-02-17T06:32:48;132.67;;;107.80;;
36253;SDS011;22291;52.250;21.228;2023-02-17T06:35:17;125.05;;;105.67;;
36253;SDS011;22291;52.250;21.228;2023-02-17T06:37:44;124.67;;;106.37;;
36253;SDS011;22291;52.250;21.228;2023-02-17T06:40:12;130.50;;;109.67;;
36253;SDS011;22291;52.250;21.228;2023-02-17T06:42:40;132.45;;;108.47;;
36253;SDS011;22291;52.250;21.228;2023-02-17T06:45:09;135.00;;;109.27;;
36253;SDS011;22291;52.250;21.228;2023-02-17T06:47:36;133.12;;;106.65;;
36253;SDS011;22291;52.250;21.228;2023-02-17T06:50:04;128.65;;;106.83;;
36253;SDS011;22291;52.250;21.228;2023-02-17T06:52:32;136.52;;;107.70;;
36253;SDS011;22291;52.250;21.228;2023-02-17T06:55:01;130.22;;;108.17;;
36253;SDS011;22291;52.250;21.228;2023-02-17T06:57:30;87.75;;;74.37;;
36253;SDS011;22291;52.250;21.228;2023-02-17T06:59:57;138.00;;;107.05;;
36253;SDS011;22291;52.250;21.228;2023-02-17T07:02:23;95.67;;;55.83;;
36253;SDS011;22291;52.250;21.228;2023-02-17T07:04:51;97.82;;;54.85;;
36253;SDS011;22291;52.250;21.228;2023-02-17T07:07:19;98.00;;;46.28;;
36253;SDS011;22291;52.250;21.228;2023-02-17T07:09:46;100.72;;;56.40;;
36253;SDS011;22291;52.250;21.228;2023-02-17T07:12:13;109.78;;;75.12;;
36253;SDS011;22291;52.250;21.228;2023-02-17T07:14:40;104.78;;;70.57;;
36253;SDS011;22291;52.250;21.228;2023-02-17T07:17:07;113.45;;;73.72;;
36253;SDS011;22291;52.250;21.228;2023-02-17T07:19:34;120.08;;;88.37;;
36253;SDS011;22291;52.250;21.228;2023-02-17T07:22:01;128.27;;;95.38;;
36253;SDS011;22291;52.250;21.228;2023-02-17T07:24:29;133.32;;;105.47;;
36253;SDS011;22291;52.250;21.228;2023-02-17T07:26:56;138.05;;;107.45;;
36253;SDS011;22291;52.250;21.228;2023-02-17T07:29:23;135.60;;;109.45;;
36253;SDS011;22291;52.250;21.228;2023-02-17T07:31:50;139.28;;;112.17;;
36253;SDS011;22291;52.250;21.228;2023-02-17T07:34:17;130.32;;;107.72;;
36253;SDS011;22291;52.250;21.228;2023-02-17T07:36:44;137.97;;;112.00;;
36253;SDS011;22291;52.250;21.228;2023-02-17T07:39:11;129.63;;;106.47;;
36253;SDS011;22291;52.250;21.228;2023-02-17T07:41:38;129.15;;;107.25;;
36253;SDS011;22291;52.250;21.228;2023-02-17T07:44:07;128.23;;;107.97;;
36253;SDS011;22291;52.250;21.228;2023-02-17T07:46:36;88.80;;;74.65;;
36253;SDS011;22291;52.250;21.228;2023-02-17T07:49:07;135.88;;;107.25;;
36253;SDS011;22291;52.250;21.228;2023-02-17T07:51:34;135.00;;;108.70;;
36253;SDS011;22291;52.250;21.228;2023-02-17T07:54:02;141.53;;;110.15;;
36253;SDS011;22291;52.250;21.228;2023-02-17T07:56:30;131.85;;;109.27;;
36253;SDS011;22291;52.250;21.228;2023-02-17T07:58:59;134.78;;;107.20;;
36253;SDS011;22291;52.250;21.228;2023-02-17T08:01:27;123.03;;;106.23;;
36253;SDS011;22291;52.250;21.228;2023-02-17T08:03:56;134.70;;;108.37;;
36253;SDS011;22291;52.250;21.228;2023-02-17T08:06:24;135.12;;;106.10;;
36253;SDS011;22291;52.250;21.228;2023-02-17T08:08:53;134.65;;;108.55;;
36253;SDS011;22291;52.250;21.228;2023-02-17T08:11:40;127.12;;;104.95;;
36253;SDS011;22291;52.250;21.228;2023-02-17T08:14:28;124.78;;;106.63;;
36253;SDS011;22291;52.250;21.228;2023-02-17T08:16:59;132.05;;;110.48;;
36253;SDS011;22291;52.250;21.228;2023-02-17T08:19:27;134.00;;;110.70;;
36253;SDS011;22291;52.250;21.228;2023-02-17T08:21:54;126.15;;;104.97;;
36253;SDS011;22291;52.250;21.228;2023-02-17T08:24:21;127.20;;;105.05;;
36253;SDS011;22291;52.250;21.228;2023-02-17T08:26:51;127.02;;;107.30;;
36253;SDS011;22291;52.250;21.228;2023-02-17T08:29:17;122.50;;;103.58;;
36253;SDS011;22291;52.250;21.228;2023-02-17T08:31:49;72.10;;;55.85;;
36253;SDS011;22291;52.250;21.228;2023-02-17T08:34:17;123.72;;;95.57;;
36253;SDS011;22291;52.250;21.228;2023-02-17T08:36:44;127.20;;;99.47;;
36253;SDS011;22291;52.250;21.228;2023-02-17T08:39:12;122.65;;;106.40;;
36253;SDS011;22291;52.250;21.228;2023-02-17T08:41:41;117.97;;;104.78;;
36253;SDS011;22291;52.250;21.228;2023-02-17T08:44:15;93.17;;;75.13;;
36253;SDS011;22291;52.250;21.228;2023-02-17T08:46:40;132.87;;;106.45;;
36253;SDS011;22291;52.250;21.228;2023-02-17T08:49:09;123.00;;;105.83;;
36253;SDS011;22291;52.250;21.228;2023-02-17T08:51:37;114.43;;;101.63;;
36253;SDS011;22291;52.250;21.228;2023-02-17T08:54:05;123.00;;;105.27;;
36253;SDS011;22291;52.250;21.228;2023-02-17T08:59:01;118.80;;;102.85;;
36253;SDS011;22291;52.250;21.228;2023-02-17T09:01:29;125.17;;;105.73;;
36253;SDS011;22291;52.250;21.228;2023-02-17T09:03:58;79.27;;;70.90;;
36253;SDS011;22291;52.250;21.228;2023-02-17T09:06:42;124.58;;;105.90;;
36253;SDS011;22291;52.250;21.228;2023-02-17T09:09:11;118.95;;;106.07;;
36253;SDS011;22291;52.250;21.228;2023-02-17T09:11:42;117.80;;;104.32;;
36253;SDS011;22291;52.250;21.228;2023-02-17T09:14:11;80.47;;;71.57;;
36253;SDS011;22291;52.250;21.228;2023-02-17T09:16:39;115.00;;;101.70;;
36253;SDS011;22291;52.250;21.228;2023-02-17T09:19:08;121.20;;;104.80;;
36253;SDS011;22291;52.250;21.228;2023-02-17T09:21:35;117.70;;;103.47;;
36253;SDS011;22291;52.250;21.228;2023-02-17T09:24:04;115.00;;;101.45;;
36253;SDS011;22291;52.250;21.228;2023-02-17T09:26:31;118.53;;;101.95;;
36253;SDS011;22291;52.250;21.228;2023-02-17T09:29:02;115.67;;;103.22;;
36253;SDS011;22291;52.250;21.228;2023-02-17T09:31:32;118.00;;;102.25;;
36253;SDS011;22291;52.250;21.228;2023-02-17T09:36:30;111.52;;;99.35;;
36253;SDS011;22291;52.250;21.228;2023-02-17T09:38:59;115.20;;;102.53;;
36253;SDS011;22291;52.250;21.228;2023-02-17T09:41:42;82.10;;;73.12;;
36253;SDS011;22291;52.250;21.228;2023-02-17T09:44:23;115.42;;;102.72;;
36253;SDS011;22291;52.250;21.228;2023-02-17T09:49:27;124.22;;;103.22;;
36253;SDS011;22291;52.250;21.228;2023-02-17T09:55:00;115.95;;;103.87;;
36253;SDS011;22291;52.250;21.228;2023-02-17T09:57:32;114.90;;;102.30;;
36253;SDS011;22291;52.250;21.228;2023-02-17T10:00:08;117.45;;;104.97;;
36253;SDS011;22291;52.250;21.228;2023-02-17T10:02:47;114.63;;;102.03;;
36253;SDS011;22291;52.250;21.228;2023-02-17T10:05:17;113.15;;;101.38;;
36253;SDS011;22291;52.250;21.228;2023-02-17T10:07:54;121.55;;;105.35;;
36253;SDS011;22291;52.250;21.228;2023-02-17T10:10:25;118.62;;;105.40;;
36253;SDS011;22291;52.250;21.228;2023-02-17T10:12:54;117.67;;;102.97;;
36253;SDS011;22291;52.250;21.228;2023-02-17T10:23:16;115.50;;;102.65;;
36253;SDS011;22291;52.250;21.228;2023-02-17T10:37:03;116.73;;;104.15;;
36253;SDS011;22291;52.250;21.228;2023-02-17T10:39:43;113.37;;;100.97;;
36253;SDS011;22291;52.250;21.228;2023-02-17T10:42:35;121.92;;;103.30;;
36253;SDS011;22291;52.250;21.228;2023-02-17T10:45:10;119.05;;;105.80;;
36253;SDS011;22291;52.250;21.228;2023-02-17T10:47:57;112.72;;;100.38;;
36253;SDS011;22291;52.250;21.228;2023-02-17T10:50:25;118.67;;;101.20;;
36253;SDS011;22291;52.250;21.228;2023-02-17T10:52:53;113.42;;;101.30;;
36253;SDS011;22291;52.250;21.228;2023-02-17T10:58:09;114.17;;;102.02;;
36253;SDS011;22291;52.250;21.228;2023-02-17T11:00:46;116.67;;;100.95;;
36253;SDS011;22291;52.250;21.228;2023-02-17T11:03:19;117.17;;;100.50;;
36253;SDS011;22291;52.250;21.228;2023-02-17T11:07:43;83.42;;;37.25;;
36253;SDS011;22291;52.250;21.228;2023-02-17T11:10:24;75.60;;;36.15;;
36253;SDS011;22291;52.250;21.228;2023-02-17T11:12:59;77.10;;;35.98;;
36253;SDS011;22291;52.250;21.228;2023-02-17T11:15:33;77.65;;;35.52;;
36253;SDS011;22291;52.250;21.228;2023-02-17T11:18:19;79.47;;;34.78;;
36253;SDS011;22291;52.250;21.228;2023-02-17T11:20:50;70.42;;;35.85;;
36253;SDS011;22291;52.250;21.228;2023-02-17T11:23:27;79.55;;;36.95;;
36253;SDS011;22291;52.250;21.228;2023-02-17T11:25:55;83.90;;;38.35;;
36253;SDS011;22291;52.250;21.228;2023-02-17T11:28:26;78.25;;;36.38;;
36253;SDS011;22291;52.250;21.228;2023-02-17T11:30:56;76.85;;;36.63;;
36253;SDS011;22291;52.250;21.228;2023-02-17T11:33:34;89.62;;;36.45;;
36253;SDS011;22291;52.250;21.228;2023-02-17T11:36:06;79.05;;;35.83;;
36253;SDS011;22291;52.250;21.228;2023-02-17T11:41:09;82.35;;;36.63;;
36253;SDS011;22291;52.250;21.228;2023-02-17T11:43:37;81.78;;;35.50;;
36253;SDS011;22291;52.250;21.228;2023-02-17T11:51:58;65.03;;;31.07;;
36253;SDS011;22291;52.250;21.228;2023-02-17T11:57:48;73.70;;;34.45;;
36253;SDS011;22291;52.250;21.228;2023-02-17T12:03:08;76.45;;;34.50;;
36253;SDS011;22291;52.250;21.228;2023-02-17T12:08:33;73.40;;;34.33;;
36253;SDS011;22291;52.250;21.228;2023-02-17T12:11:29;77.15;;;35.30;;
36253;SDS011;22291;52.250;21.228;2023-02-17T12:29:12;72.27;;;32.38;;
36253;SDS011;22291;52.250;21.228;2023-02-17T12:32:21;66.25;;;31.90;;
36253;SDS011;22291;52.250;21.228;2023-02-17T12:35:11;66.90;;;30.55;;
36253;SDS011;22291;52.250;21.228;2023-02-17T12:37:32;71.40;;;33.18;;
36253;SDS011;22291;52.250;21.228;2023-02-17T12:40:04;73.97;;;33.75;;
36253;SDS011;22291;52.250;21.228;2023-02-17T12:42:50;76.05;;;32.98;;
36253;SDS011;22291;52.250;21.228;2023-02-17T12:45:22;73.47;;;31.57;;
36253;SDS011;22291;52.250;21.228;2023-02-17T12:47:57;70.65;;;32.23;;
36253;SDS011;22291;52.250;21.228;2023-02-17T12:50:31;67.65;;;31.30;;
36253;SDS011;22291;52.250;21.228;2023-02-17T12:53:09;73.20;;;32.60;;
36253;SDS011;22291;52.250;21.228;2023-02-17T12:55:42;74.95;;;32.88;;
36253;SDS011;22291;52.250;21.228;2023-02-17T12:58:22;74.30;;;33.10;;
36253;SDS011;22291;52.250;21.228;2023-02-17T13:01:03;69.40;;;31.20;;
36253;SDS011;22291;52.250;21.228;2023-02-17T13:03:34;65.37;;;29.85;;
36253;SDS011;22291;52.250;21.228;2023-02-17T13:06:07;67.17;;;30.60;;
36253;SDS011;22291;52.250;21.228;2023-02-17T13:08:51;66.37;;;30.88;;
36253;SDS011;22291;52.250;21.228;2023-02-17T13:11:31;65.12;;;30.72;;
36253;SDS011;22291;52.250;21.228;2023-02-17T13:16:56;67.42;;;30.17;;
36253;SDS011;22291;52.250;21.228;2023-02-17T13:19:27;64.00;;;29.57;;
36253;SDS011;22291;52.250;21.228;2023-02-17T13:21:58;68.10;;;30.62;;
36253;SDS011;22291;52.250;21.228;2023-02-17T13:24:33;64.05;;;29.52;;
36253;SDS011;22291;52.250;21.228;2023-02-17T13:30:00;63.65;;;27.27;;
36253;SDS011;22291;52.250;21.228;2023-02-17T13:35:10;53.98;;;25.52;;
36253;SDS011;22291;52.250;21.228;2023-02-17T13:37:50;56.02;;;26.93;;
36253;SDS011;22291;52.250;21.228;2023-02-17T13:42:50;56.40;;;27.98;;
36253;SDS011;22291;52.250;21.228;2023-02-17T13:47:57;56.25;;;27.05;;
36253;SDS011;22291;52.250;21.228;2023-02-17T13:50:34;53.58;;;26.27;;
36253;SDS011;22291;52.250;21.228;2023-02-17T13:53:19;51.77;;;24.95;;
36253;SDS011;22291;52.250;21.228;2023-02-17T13:56:41;55.50;;;26.48;;
36253;SDS011;22291;52.250;21.228;2023-02-17T13:58:30;51.18;;;25.75;;
36253;SDS011;22291;52.250;21.228;2023-02-17T14:01:01;56.77;;;25.30;;
36253;SDS011;22291;52.250;21.228;2023-02-17T14:06:18;56.20;;;25.55;;
36253;SDS011;22291;52.250;21.228;2023-02-17T14:08:39;55.40;;;25.57;;
36253;SDS011;22291;52.250;21.228;2023-02-17T14:11:08;50.28;;;23.80;;
36253;SDS011;22291;52.250;21.228;2023-02-17T14:13:41;52.05;;;25.80;;
36253;SDS011;22291;52.250;21.228;2023-02-17T14:16:30;54.55;;;27.67;;
36253;SDS011;22291;52.250;21.228;2023-02-17T14:19:07;51.75;;;22.65;;
36253;SDS011;22291;52.250;21.228;2023-02-17T14:21:40;42.90;;;22.05;;
36253;SDS011;22291;52.250;21.228;2023-02-17T14:24:24;47.85;;;23.40;;
36253;SDS011;22291;52.250;21.228;2023-02-17T14:29:42;49.55;;;23.67;;
36253;SDS011;22291;52.250;21.228;2023-02-17T14:32:31;50.73;;;23.70;;
36253;SDS011;22291;52.250;21.228;2023-02-17T14:37:41;48.23;;;23.42;;
36253;SDS011;22291;52.250;21.228;2023-02-17T14:40:19;55.38;;;25.35;;
36253;SDS011;22291;52.250;21.228;2023-02-17T14:45:16;46.88;;;21.20;;
36253;SDS011;22291;52.250;21.228;2023-02-17T14:47:45;47.65;;;24.98;;
36253;SDS011;22291;52.250;21.228;2023-02-17T14:50:13;53.98;;;23.95;;
36253;SDS011;22291;52.250;21.228;2023-02-17T14:52:45;51.00;;;22.77;;
36253;SDS011;22291;52.250;21.228;2023-02-17T14:55:15;51.13;;;23.90;;
36253;SDS011;22291;52.250;21.228;2023-02-17T14:58:03;47.88;;;22.70;;
36253;SDS011;22291;52.250;21.228;2023-02-17T15:00:34;44.00;;;21.48;;
36253;SDS011;22291;52.250;21.228;2023-02-17T15:03:00;53.17;;;26.10;;
36253;SDS011;22291;52.250;21.228;2023-02-17T15:05:28;48.75;;;26.30;;
36253;SDS011;22291;52.250;21.228;2023-02-17T15:07:54;51.18;;;27.42;;
36253;SDS011;22291;52.250;21.228;2023-02-17T15:10:23;49.00;;;24.35;;
36253;SDS011;22291;52.250;21.228;2023-02-17T15:12:54;47.55;;;22.22;;
36253;SDS011;22291;52.250;21.228;2023-02-17T15:15:21;50.03;;;22.87;;
36253;SDS011;22291;52.250;21.228;2023-02-17T15:17:48;48.90;;;24.52;;
36253;SDS011;22291;52.250;21.228;2023-02-17T15:20:17;48.23;;;33.73;;
36253;SDS011;22291;52.250;21.228;2023-02-17T15:22:43;52.13;;;28.85;;
36253;SDS011;22291;52.250;21.228;2023-02-17T15:25:14;50.00;;;25.15;;
36253;SDS011;22291;52.250;21.228;2023-02-17T15:27:46;47.67;;;26.45;;
36253;SDS011;22291;52.250;21.228;2023-02-17T15:30:18;54.15;;;27.90;;
36253;SDS011;22291;52.250;21.228;2023-02-17T15:32:46;49.67;;;25.65;;
36253;SDS011;22291;52.250;21.228;2023-02-17T15:37:49;48.33;;;23.57;;
36253;SDS011;22291;52.250;21.228;2023-02-17T15:40:25;50.70;;;26.02;;
36253;SDS011;22291;52.250;21.228;2023-02-17T15:42:55;52.98;;;25.70;;
36253;SDS011;22291;52.250;21.228;2023-02-17T15:45:31;51.48;;;24.27;;
36253;SDS011;22291;52.250;21.228;2023-02-17T15:48:05;46.65;;;23.55;;
36253;SDS011;22291;52.250;21.228;2023-02-17T15:50:40;48.15;;;24.37;;
36253;SDS011;22291;52.250;21.228;2023-02-17T15:53:06;45.23;;;23.05;;
36253;SDS011;22291;52.250;21.228;2023-02-17T15:55:32;44.53;;;22.52;;
36253;SDS011;22291;52.250;21.228;2023-02-17T15:58:01;51.33;;;24.50;;
36253;SDS011;22291;52.250;21.228;2023-02-17T16:00:32;52.27;;;27.22;;
36253;SDS011;22291;52.250;21.228;2023-02-17T16:03:00;51.00;;;25.90;;
36253;SDS011;22291;52.250;21.228;2023-02-17T16:05:30;48.08;;;23.12;;
36253;SDS011;22291;52.250;21.228;2023-02-17T16:07:59;48.02;;;23.73;;
36253;SDS011;22291;52.250;21.228;2023-02-17T16:10:26;57.03;;;28.38;;
36253;SDS011;22291;52.250;21.228;2023-02-17T16:12:57;55.85;;;30.70;;
36253;SDS011;22291;52.250;21.228;2023-02-17T16:15:29;56.10;;;34.55;;
36253;SDS011;22291;52.250;21.228;2023-02-17T16:17:56;59.30;;;41.20;;